Xiushui, China
Current Conditions -  °F | °C
As of 9:00 AM on Wednesday 28 Jan 2015 (Local Time) from ZGHA Reporting Station
Light Rain Light Rain  
Wind Chill: 32°   Ceiling: 400
Heat Index: 37°   Visibility: 1mi
Dew Point: 34°   Wind: 7mph
Humidity: 87%   Direction: 320°NW
Pressure: 30.27"   Gusts: NA
Location:  29.03°N, 114.58°E
Report Text: ZGHA 280100Z 32003MPS 290V350 1700 -RA BR SCT003BKN004OVC040 03/01 Q1025 NOSIG
Loading
Personal Weather Stations






























Interactive Weather Map New forecast layout! Learn more

10-Day Weather Forecast

Advertisements
Track Severe Weather on mobile